MyWebLog Booking Liste

 

Nyhetsmelding

Årsmøte i Værnes Flyklubb onsdag 18.3. fra kl. 1900-2100

 Husk årsmøte i Værnes Flyklubb onsdag 18.3 fra kl. 1900-2100! 

Kopirett © 2015 Værnes Flyklubb. Alle rettigheter reservert.
Joomla! er fri programvare utgitt under GNU/GPL License.
 

METAR

ENVA 070120Z 17022KT 9999 FEW006 SCT055 BKN080 07/M01 Q0998 RMK WIND 670FT 18030G43KT

TAF ENVA 0700/0724 15010KT 9999 FEW030 BKN060 TEMPO 0700/0710 17018G30KT BECMG 0709/0711 25018KT TEMPO 0710/0717 SHRA FEW010CB BKN020 BECMG 0715/0719 22008KT -RA BKN014